Vremea mâine în Podu Iloaiei - Romania

Vrei sa afli care e starea vremii acum in Iasi - Romania? Dorim sa iti furnizam starea vremii pentru Iasi - Romania. Starea vremii Iasi - Romania pentru astazi.

Vremea mâine în Podu Iloaiei

Temperatura minimă:
11.2 °C

Temperatura maximă:
24.8 °C

Mâine va fi: Senin
Precipitații: 0 %
Umiditate: 56%
Viteza maximă vânt mâine:
19.1 km/h

Evoluția vremii in Podu Iloaiei pe ore mâine

Ora: 03:00
Temperatura: °C
Sansa de precipitatii: %
Ora Descriere Temp Se simte Precipitatii Umiditate Vant
00:00Senin14.5°14.2°0%62%SSW 9 KM/H
01:00Senin13.9°13.8°0%66%S 6.8 KM/H
02:00Senin13.2°13°0%69%SSE 6.8 KM/H
03:00Senin12.5°12°0%72%SE 7.9 KM/H
04:00Senin12°11.2°0%74%SSE 8.6 KM/H
05:00Senin11.8°11°0%74%SSE 8.3 KM/H
06:00Senin11.2°10.3°0%77%SSE 8.6 KM/H
07:00Senin12.5°11.9°0%77%SSE 7.9 KM/H
08:00Senin14.9°14.5°0%69%SE 10.1 KM/H
09:00Senin17°17°0%63%SSE 11.2 KM/H
10:00Senin19.4°19.4°0%56%SSE 11.5 KM/H
11:00Senin21.7°21.7°0%48%S 13.3 KM/H
12:00Senin23.3°24.5°0%41%S 15.1 KM/H
13:00Senin24.2°24.7°0%37%S 15.8 KM/H
14:00Senin24.7°24.9°0%35%S 15.8 KM/H
15:00Senin24.8°24.9°0%35%S 16.2 KM/H
16:00Senin24.8°24.9°0%35%S 16.9 KM/H
17:00Senin24.4°24.8°0%36%S 18 KM/H
18:00Senin23.8°24.7°0%41%S 16.6 KM/H
19:00Senin21.7°21.7°0%49%S 14 KM/H
20:00Senin18.1°18.1°0%58%S 11.2 KM/H
21:00Senin16.4°16.4°0%60%SSE 12.6 KM/H
22:00Senin15.3°15.3°0%61%SSE 15.5 KM/H
23:00Senin15.1°15.1°0%59%SSE 19.1 KM/H




tutorials